createdAt,value
2023-04-12T00:00:02.510Z,979.17
2023-04-12T00:01:02.504Z,979.28
2023-04-12T00:02:02.551Z,979.13
2023-04-12T00:03:02.576Z,979.21
2023-04-12T00:04:02.994Z,979.14
2023-04-12T00:05:02.628Z,979.11
2023-04-12T00:06:02.467Z,979.15
2023-04-12T00:07:02.447Z,979.15
2023-04-12T00:08:02.520Z,979.10
2023-04-12T00:09:02.457Z,979.08
2023-04-12T00:10:02.424Z,979.10
2023-04-12T00:11:02.394Z,979.09
2023-04-12T00:12:02.380Z,979.05
2023-04-12T00:13:02.395Z,979.05
2023-04-12T00:14:02.372Z,979.08
2023-04-12T00:15:02.367Z,979.04
2023-04-12T00:16:02.384Z,979.06
2023-04-12T00:17:02.345Z,979.08
2023-04-12T00:18:02.454Z,979.02
2023-04-12T00:19:02.324Z,979.04
2023-04-12T00:20:02.298Z,979.01
2023-04-12T00:21:02.357Z,979.05
2023-04-12T00:22:02.351Z,978.97
2023-04-12T00:23:02.273Z,978.98
2023-04-12T00:24:02.261Z,978.97
2023-04-12T00:25:02.295Z,978.93
2023-04-12T00:26:02.242Z,979.00
2023-04-12T00:27:02.251Z,978.95
2023-04-12T00:28:02.234Z,978.90
2023-04-12T00:29:02.225Z,978.91
2023-04-12T00:30:02.206Z,978.95
2023-04-12T00:31:02.246Z,978.94
2023-04-12T00:32:02.171Z,978.90
2023-04-12T00:33:02.247Z,978.92
2023-04-12T00:34:02.182Z,978.89
2023-04-12T00:35:02.147Z,978.92
2023-04-12T00:36:02.215Z,978.90
2023-04-12T00:37:02.125Z,978.91
2023-04-12T00:38:02.141Z,978.91
2023-04-12T00:39:02.108Z,978.86
2023-04-12T00:40:02.143Z,978.89
2023-04-12T00:41:02.084Z,978.91
2023-04-12T00:42:02.066Z,978.83
2023-04-12T00:43:02.061Z,978.89
2023-04-12T00:44:02.045Z,978.85
2023-04-12T00:45:02.041Z,978.83
2023-04-12T00:46:02.033Z,978.84
2023-04-12T00:47:02.074Z,978.85
2023-04-12T00:48:02.051Z,978.81
2023-04-12T00:49:02.071Z,978.87
2023-04-12T00:50:01.985Z,978.82
2023-04-12T00:51:01.990Z,978.82
2023-04-12T00:52:01.962Z,978.78
2023-04-12T00:53:01.966Z,978.79
2023-04-12T00:54:01.952Z,978.78
2023-04-12T00:55:01.958Z,978.73
2023-04-12T00:56:01.984Z,978.76
2023-04-12T00:57:01.905Z,978.72
2023-04-12T00:58:01.908Z,978.63
2023-04-12T00:59:01.901Z,978.70
2023-04-12T01:00:01.895Z,978.71
2023-04-12T01:01:01.932Z,978.63
2023-04-12T01:02:02.112Z,978.68
2023-04-12T01:03:01.996Z,978.67
2023-04-12T01:04:01.860Z,978.69
2023-04-12T01:05:01.820Z,978.61
2023-04-12T01:06:01.858Z,978.63
2023-04-12T01:07:01.802Z,978.65
2023-04-12T01:08:01.784Z,978.62
2023-04-12T01:09:01.788Z,978.68
2023-04-12T01:10:01.769Z,978.63
2023-04-12T01:11:01.811Z,978.61
2023-04-12T01:12:01.774Z,978.65
2023-04-12T01:13:01.755Z,978.61
2023-04-12T01:14:01.748Z,978.59
2023-04-12T01:15:01.728Z,978.57
2023-04-12T01:16:01.746Z,978.59
2023-04-12T01:17:01.692Z,978.55
2023-04-12T01:18:01.740Z,978.52
2023-04-12T01:19:01.709Z,978.51
2023-04-12T01:20:01.655Z,978.54
2023-04-12T01:21:01.643Z,978.49
2023-04-12T01:22:01.650Z,978.53
2023-04-12T01:23:01.641Z,978.49
2023-04-12T01:24:01.627Z,978.51
2023-04-12T01:25:01.623Z,978.41
2023-04-12T01:26:01.609Z,978.46
2023-04-12T01:27:01.582Z,978.45
2023-04-12T01:28:01.578Z,978.37
2023-04-12T01:29:01.592Z,978.39
2023-04-12T01:30:01.535Z,978.38
2023-04-12T01:31:01.522Z,978.31
2023-04-12T01:32:01.742Z,978.37
2023-04-12T01:33:01.539Z,978.34
2023-04-12T01:34:01.524Z,978.35
2023-04-12T01:35:01.503Z,978.35
2023-04-12T01:36:01.535Z,978.37
2023-04-12T01:37:01.505Z,978.36
2023-04-12T01:38:01.461Z,978.36
2023-04-12T01:39:01.450Z,978.33
2023-04-12T01:40:01.442Z,978.35
2023-04-12T01:41:01.431Z,978.36
2023-04-12T01:42:01.433Z,978.34
2023-04-12T01:43:01.401Z,978.32
2023-04-12T01:44:01.380Z,978.27
2023-04-12T01:45:01.402Z,978.25
2023-04-12T01:46:01.370Z,978.24
2023-04-12T01:47:01.387Z,978.22
2023-04-12T01:48:01.407Z,978.21
2023-04-12T01:49:01.330Z,978.18
2023-04-12T01:50:01.332Z,978.12
2023-04-12T01:51:01.410Z,978.13
2023-04-12T01:52:01.304Z,978.10
2023-04-12T01:53:01.334Z,978.12
2023-04-12T01:54:01.296Z,978.07
2023-04-12T01:55:01.272Z,978.10
2023-04-12T01:56:01.267Z,978.11
2023-04-12T01:57:01.262Z,978.03
2023-04-12T01:58:01.250Z,977.97
2023-04-12T01:59:01.228Z,977.99
2023-04-12T02:00:01.299Z,977.98
2023-04-12T02:01:01.261Z,977.92
2023-04-12T02:02:01.266Z,977.93
2023-04-12T02:03:01.302Z,977.86
2023-04-12T02:04:01.603Z,977.89
2023-04-12T02:05:01.176Z,977.86
2023-04-12T02:06:01.179Z,977.82
2023-04-12T02:07:01.141Z,977.88
2023-04-12T02:08:01.250Z,977.84
2023-04-12T02:09:01.125Z,977.79
2023-04-12T02:10:01.117Z,977.77
2023-04-12T02:11:01.111Z,977.73
2023-04-12T02:12:01.083Z,977.74
2023-04-12T02:13:01.087Z,977.66
2023-04-12T02:14:01.075Z,977.66
2023-04-12T02:15:01.095Z,977.66
2023-04-12T02:16:01.055Z,977.61
2023-04-12T02:17:01.246Z,977.60
2023-04-12T02:18:01.077Z,977.58
2023-04-12T02:19:01.014Z,977.55
2023-04-12T02:20:01.010Z,977.54
2023-04-12T02:21:01.012Z,977.51
2023-04-12T02:22:01.007Z,977.52
2023-04-12T02:23:00.995Z,977.50
2023-04-12T02:24:00.953Z,977.47
2023-04-12T02:25:00.962Z,977.45
2023-04-12T02:26:00.941Z,977.45
2023-04-12T02:27:00.951Z,977.43
2023-04-12T02:28:00.981Z,977.38
2023-04-12T02:29:00.922Z,977.43
2023-04-12T02:30:00.899Z,977.39
2023-04-12T02:31:00.959Z,977.40
2023-04-12T02:32:00.870Z,977.37
2023-04-12T02:33:00.903Z,977.33
2023-04-12T02:34:00.894Z,977.30
2023-04-12T02:35:00.841Z,977.38
2023-04-12T02:36:00.877Z,977.34
2023-04-12T02:37:00.831Z,977.29
2023-04-12T02:38:00.835Z,977.28
2023-04-12T02:39:01.073Z,977.22
2023-04-12T02:40:00.819Z,977.23
2023-04-12T02:41:00.802Z,977.24
2023-04-12T02:42:00.765Z,977.16
2023-04-12T02:43:00.764Z,977.22
2023-04-12T02:44:00.805Z,977.18
2023-04-12T02:45:00.730Z,977.15
2023-04-12T02:46:00.762Z,977.18
2023-04-12T02:47:00.725Z,977.19
2023-04-12T02:48:00.743Z,977.13
2023-04-12T02:49:00.724Z,977.13
2023-04-12T02:50:00.680Z,977.15
2023-04-12T02:51:00.681Z,977.09
2023-04-12T02:52:00.658Z,977.02
2023-04-12T02:53:00.645Z,977.12
2023-04-12T02:54:00.651Z,977.03
2023-04-12T02:55:00.642Z,977.03
2023-04-12T02:56:00.618Z,977.00
2023-04-12T02:57:00.625Z,977.03
2023-04-12T02:58:00.596Z,977.00
2023-04-12T02:59:00.583Z,977.04
2023-04-12T03:00:00.588Z,976.96
2023-04-12T03:01:00.629Z,977.01
2023-04-12T03:02:00.723Z,976.92
2023-04-12T03:03:00.650Z,976.96
2023-04-12T03:04:00.969Z,976.89
2023-04-12T03:05:00.532Z,976.88
2023-04-12T03:06:00.525Z,976.85
2023-04-12T03:07:00.510Z,976.84
2023-04-12T03:08:00.517Z,976.77
2023-04-12T03:09:00.483Z,976.75
2023-04-12T03:10:00.501Z,976.76
2023-04-12T03:11:00.473Z,976.72
2023-04-12T03:12:00.458Z,976.74
2023-04-12T03:13:00.437Z,976.69
2023-04-12T03:14:00.424Z,976.73
2023-04-12T03:15:00.425Z,976.55
2023-04-12T03:16:00.486Z,976.55
2023-04-12T03:17:00.392Z,976.55
2023-04-12T03:18:00.447Z,976.55
2023-04-12T03:19:00.374Z,976.53
2023-04-12T03:20:00.360Z,976.53
2023-04-12T03:21:00.343Z,976.45
2023-04-12T03:22:00.344Z,976.50
2023-04-12T03:23:00.333Z,976.55
2023-04-12T03:24:00.362Z,976.45
2023-04-12T03:25:00.306Z,976.46
2023-04-12T03:26:00.295Z,976.41
2023-04-12T03:27:00.286Z,976.40
2023-04-12T03:28:00.281Z,976.43
2023-04-12T03:29:00.267Z,976.37
2023-04-12T03:30:00.261Z,976.33
2023-04-12T03:31:00.314Z,976.31
2023-04-12T03:32:00.230Z,976.32
2023-04-12T03:33:00.363Z,976.28
2023-04-12T03:34:00.422Z,976.30
2023-04-12T03:35:00.193Z,976.30
2023-04-12T03:36:00.224Z,976.22
2023-04-12T03:37:00.204Z,976.22
2023-04-12T03:38:00.184Z,976.21
2023-04-12T03:39:00.152Z,976.21
2023-04-12T03:40:00.174Z,976.21
2023-04-12T03:41:00.144Z,976.17
2023-04-12T03:42:00.126Z,976.19
2023-04-12T03:43:01.889Z,976.19
2023-04-12T03:44:00.136Z,976.17
2023-04-12T03:45:00.108Z,976.11
2023-04-12T03:46:00.159Z,976.13
2023-04-12T03:47:00.086Z,976.10
2023-04-12T03:48:00.183Z,976.10
2023-04-12T03:49:00.048Z,976.12
2023-04-12T03:50:11.130Z,976.10
2023-04-12T03:51:01.036Z,976.13
2023-04-12T03:52:00.020Z,976.04
2023-04-12T03:53:00.006Z,976.05
2023-04-12T03:54:00.128Z,976.01
2023-04-12T03:55:00.018Z,976.01
2023-04-12T03:55:59.986Z,975.95
2023-04-12T03:56:59.963Z,975.98
2023-04-12T03:57:59.949Z,976.05
2023-04-12T03:58:59.945Z,975.97
2023-04-12T03:59:59.942Z,975.96
2023-04-12T04:00:59.930Z,975.93
2023-04-12T04:01:59.938Z,975.89
2023-04-12T04:02:59.962Z,975.91
2023-04-12T04:04:00.316Z,975.86
2023-04-12T04:04:59.904Z,975.87
2023-04-12T04:05:59.903Z,975.88
2023-04-12T04:06:59.849Z,975.87
2023-04-12T04:07:59.841Z,975.84
2023-04-12T04:08:59.848Z,975.79
2023-04-12T04:09:59.823Z,975.83
2023-04-12T04:10:59.826Z,975.81
2023-04-12T04:11:59.809Z,975.80
2023-04-12T04:12:59.826Z,975.80
2023-04-12T04:13:59.792Z,975.77
2023-04-12T04:14:59.770Z,975.79
2023-04-12T04:15:59.828Z,975.77
2023-04-12T04:16:59.750Z,975.75
2023-04-12T04:17:59.825Z,975.78
2023-04-12T04:18:59.723Z,975.71
2023-04-12T04:19:59.722Z,975.65
2023-04-12T04:20:59.706Z,975.66
2023-04-12T04:21:59.703Z,975.65
2023-04-12T04:22:59.686Z,975.64
2023-04-12T04:23:59.685Z,975.58
2023-04-12T04:24:59.663Z,975.60
2023-04-12T04:25:59.659Z,975.55
2023-04-12T04:26:59.662Z,975.52
2023-04-12T04:27:59.724Z,975.52
2023-04-12T04:28:59.623Z,975.46
2023-04-12T04:29:59.621Z,975.42
2023-04-12T04:30:59.600Z,975.44
2023-04-12T04:31:59.658Z,975.48
2023-04-12T04:32:59.594Z,975.46
2023-04-12T04:33:59.575Z,975.43
2023-04-12T04:34:59.555Z,975.48
2023-04-12T04:35:59.588Z,975.40
2023-04-12T04:36:59.538Z,975.41
2023-04-12T04:37:59.537Z,975.41
2023-04-12T04:38:59.534Z,975.36
2023-04-12T04:39:59.532Z,975.37
2023-04-12T04:40:59.524Z,975.39
2023-04-12T04:41:59.492Z,975.39
2023-04-12T04:42:59.474Z,975.36
2023-04-12T04:43:59.482Z,975.36
2023-04-12T04:44:59.458Z,975.36
2023-04-12T04:45:59.492Z,975.33
2023-04-12T04:46:59.430Z,975.37
2023-04-12T04:47:59.474Z,975.35
2023-04-12T04:48:59.461Z,975.30
2023-04-12T04:49:59.415Z,975.27
2023-04-12T04:50:59.389Z,975.34
2023-04-12T04:51:59.441Z,975.35
2023-04-12T04:52:59.368Z,975.36
2023-04-12T04:53:59.370Z,975.24
2023-04-12T04:54:59.352Z,975.20
2023-04-12T04:55:59.347Z,975.13
2023-04-12T04:56:59.331Z,975.21
2023-04-12T04:57:59.340Z,975.30
2023-04-12T04:58:59.704Z,975.23
2023-04-12T05:00:00.257Z,975.35
2023-04-12T05:00:59.303Z,975.35
2023-04-12T05:01:59.297Z,975.34
2023-04-12T05:02:59.371Z,975.26
2023-04-12T05:03:59.361Z,975.23
2023-04-12T05:04:59.239Z,975.34
2023-04-12T05:05:59.244Z,975.26
2023-04-12T05:06:59.218Z,975.22
2023-04-12T05:07:59.215Z,975.29
2023-04-12T05:08:59.442Z,975.18
2023-04-12T05:09:59.198Z,975.28
2023-04-12T05:10:59.192Z,975.17
2023-04-12T05:11:59.177Z,975.14
2023-04-12T05:12:59.162Z,975.19
2023-04-12T05:13:59.148Z,975.17
2023-04-12T05:15:11.041Z,975.20
2023-04-12T05:16:00.165Z,975.16
2023-04-12T05:16:59.215Z,975.19
2023-04-12T05:17:59.146Z,975.15
2023-04-12T05:18:59.276Z,975.13
2023-04-12T05:19:59.109Z,975.14
2023-04-12T05:20:59.069Z,975.17
2023-04-12T05:21:59.071Z,975.14
2023-04-12T05:22:59.048Z,975.06
2023-04-12T05:23:59.058Z,975.05
2023-04-12T05:24:59.030Z,975.05
2023-04-12T05:25:59.040Z,975.05
2023-04-12T05:26:59.003Z,975.10
2023-04-12T05:27:59.000Z,975.05
2023-04-12T05:28:59.100Z,975.05
2023-04-12T05:29:58.976Z,974.99
2023-04-12T05:30:59.043Z,975.00
2023-04-12T05:31:58.952Z,975.01
2023-04-12T05:32:59.013Z,975.02
2023-04-12T05:33:58.947Z,975.01
2023-04-12T05:34:58.948Z,974.98
2023-04-12T05:35:58.955Z,974.95
2023-04-12T05:36:58.906Z,974.92
2023-04-12T05:37:58.894Z,974.88
2023-04-12T05:38:59.033Z,974.86
2023-04-12T05:39:58.885Z,974.88
2023-04-12T05:40:58.864Z,974.87
2023-04-12T05:41:58.858Z,974.85
2023-04-12T05:42:58.843Z,974.83
2023-04-12T05:43:58.827Z,974.74
2023-04-12T05:44:58.812Z,974.80
2023-04-12T05:45:58.886Z,974.74
2023-04-12T05:46:58.790Z,974.79
2023-04-12T05:47:58.838Z,974.72
2023-04-12T05:48:59.085Z,974.75
2023-04-12T05:49:58.768Z,974.71
2023-04-12T05:50:58.748Z,974.64
2023-04-12T05:51:58.756Z,974.66
2023-04-12T05:52:58.746Z,974.60
2023-04-12T05:53:58.721Z,974.56
2023-04-12T05:54:58.707Z,974.55
2023-04-12T05:55:58.718Z,974.50
2023-04-12T05:56:58.714Z,974.52
2023-04-12T05:57:58.849Z,974.53
2023-04-12T05:58:58.790Z,974.50
2023-04-12T05:59:58.665Z,974.47
2023-04-12T06:00:58.657Z,974.49
2023-04-12T06:01:58.673Z,974.47
2023-04-12T06:02:58.833Z,974.43
2023-04-12T06:03:58.736Z,974.38
2023-04-12T06:04:58.780Z,974.29
2023-04-12T06:05:58.601Z,974.34
2023-04-12T06:06:58.601Z,974.29
2023-04-12T06:07:58.668Z,974.25
2023-04-12T06:08:58.712Z,974.22
2023-04-12T06:09:58.559Z,974.26
2023-04-12T06:10:58.550Z,974.22
2023-04-12T06:11:58.534Z,974.21
2023-04-12T06:12:58.530Z,974.13
2023-04-12T06:13:58.515Z,974.18
2023-04-12T06:14:58.501Z,974.19
2023-04-12T06:15:58.542Z,974.17
2023-04-12T06:16:58.488Z,974.14
2023-04-12T06:17:58.508Z,974.11
2023-04-12T06:18:58.737Z,974.11
2023-04-12T06:19:58.452Z,974.12
2023-04-12T06:20:58.437Z,974.08
2023-04-12T06:21:58.428Z,974.04
2023-04-12T06:22:58.436Z,974.04
2023-04-12T06:23:58.426Z,974.04
2023-04-12T06:24:58.406Z,974.04
2023-04-12T06:25:58.390Z,973.95
2023-04-12T06:26:58.398Z,973.97
2023-04-12T06:27:58.380Z,973.97
2023-04-12T06:28:58.656Z,973.99
2023-04-12T06:29:58.348Z,973.91
2023-04-12T06:30:59.069Z,973.91
2023-04-12T06:31:58.330Z,973.90
2023-04-12T06:32:58.429Z,973.88
2023-04-12T06:33:58.428Z,973.92
2023-04-12T06:34:58.283Z,973.88
2023-04-12T06:35:58.992Z,973.80
2023-04-12T06:36:58.272Z,973.82
2023-04-12T06:37:58.961Z,973.82
2023-04-12T06:38:58.490Z,973.75
2023-04-12T06:39:59.244Z,973.74
2023-04-12T06:40:58.235Z,973.70
2023-04-12T06:41:59.253Z,973.75
2023-04-12T06:42:58.213Z,973.77
2023-04-12T06:43:58.330Z,973.71
2023-04-12T06:44:58.192Z,973.70
2023-04-12T06:45:58.903Z,973.66
2023-04-12T06:46:58.264Z,973.59
2023-04-12T06:47:58.191Z,973.63
2023-04-12T06:48:58.455Z,973.54
2023-04-12T06:49:58.162Z,973.56
2023-04-12T06:50:58.111Z,973.52
2023-04-12T06:51:58.249Z,973.51
2023-04-12T06:52:58.092Z,973.50
2023-04-12T06:53:58.099Z,973.51
2023-04-12T06:54:58.067Z,973.52
2023-04-12T06:55:58.049Z,973.51
2023-04-12T06:56:58.055Z,973.52
2023-04-12T06:57:58.041Z,973.48
2023-04-12T06:58:58.185Z,973.46
2023-04-12T06:59:58.015Z,973.57
2023-04-12T07:00:58.040Z,973.54
2023-04-12T07:01:58.021Z,973.48
2023-04-12T07:02:58.064Z,973.39
2023-04-12T07:03:58.026Z,973.38
2023-04-12T07:04:57.995Z,973.37
2023-04-12T07:05:57.967Z,973.25
2023-04-12T07:06:57.939Z,973.21
2023-04-12T07:07:57.944Z,973.23
2023-04-12T07:08:59.851Z,973.28
2023-04-12T07:09:58.194Z,973.32
2023-04-12T07:10:57.900Z,973.30
2023-04-12T07:11:57.935Z,973.13
2023-04-12T07:12:59.658Z,973.13
2023-04-12T07:13:57.869Z,972.99
2023-04-12T07:14:57.863Z,973.06
2023-04-12T07:15:57.880Z,973.03
2023-04-12T07:16:57.883Z,972.99
2023-04-12T07:17:57.877Z,972.91
2023-04-12T07:18:57.943Z,972.81
2023-04-12T07:19:57.802Z,972.93
2023-04-12T07:20:57.801Z,973.00
2023-04-12T07:21:58.053Z,973.05
2023-04-12T07:22:57.784Z,972.94
2023-04-12T07:23:57.778Z,972.93
2023-04-12T07:24:59.671Z,972.91
2023-04-12T07:25:57.739Z,972.89
2023-04-12T07:26:57.736Z,972.75
2023-04-12T07:27:57.722Z,972.65
2023-04-12T07:28:57.921Z,972.65
2023-04-12T07:29:58.709Z,972.75
2023-04-12T07:30:57.692Z,972.81
2023-04-12T07:31:57.669Z,972.67
2023-04-12T07:33:08.685Z,972.67
2023-04-12T07:33:58.787Z,972.60
2023-04-12T07:34:57.665Z,972.73
2023-04-12T07:35:57.681Z,972.70
2023-04-12T07:36:57.637Z,972.78
2023-04-12T07:37:58.382Z,972.72
2023-04-12T07:38:57.922Z,972.58
2023-04-12T07:39:57.627Z,972.56
2023-04-12T07:40:57.602Z,972.44
2023-04-12T07:41:58.361Z,972.41
2023-04-12T07:42:57.604Z,972.24
2023-04-12T07:43:57.545Z,972.31
2023-04-12T07:44:57.594Z,972.24
2023-04-12T07:45:57.639Z,972.26
2023-04-12T07:46:57.674Z,972.21
2023-04-12T07:47:57.630Z,972.19
2023-04-12T07:48:57.642Z,972.17
2023-04-12T07:49:57.516Z,972.11
2023-04-12T07:50:57.480Z,972.16
2023-04-12T07:51:57.497Z,972.12
2023-04-12T07:52:57.487Z,972.14
2023-04-12T07:53:57.593Z,972.13
2023-04-12T07:54:57.432Z,972.08
2023-04-12T07:55:57.419Z,972.04
2023-04-12T07:56:57.408Z,971.98
2023-04-12T07:57:57.396Z,972.00
2023-04-12T07:58:57.815Z,971.98
2023-04-12T07:59:57.373Z,971.94
2023-04-12T08:00:59.192Z,971.94
2023-04-12T08:01:57.423Z,971.95
2023-04-12T08:02:57.757Z,971.97
2023-04-12T08:03:57.782Z,971.97
2023-04-12T08:04:57.343Z,971.87
2023-04-12T08:05:57.386Z,971.87
2023-04-12T08:06:57.606Z,971.91
2023-04-12T08:07:57.297Z,971.89
2023-04-12T08:08:57.279Z,971.97
2023-04-12T08:09:57.272Z,971.93
2023-04-12T08:10:57.280Z,971.98
2023-04-12T08:11:57.256Z,971.98
2023-04-12T08:12:57.269Z,971.99
2023-04-12T08:13:57.496Z,971.96
2023-04-12T08:14:57.226Z,971.97
2023-04-12T08:15:58.236Z,971.96
2023-04-12T08:16:57.221Z,971.91
2023-04-12T08:17:57.267Z,971.88
2023-04-12T08:18:57.468Z,971.88
2023-04-12T08:19:57.169Z,971.86
2023-04-12T08:20:57.158Z,971.85
2023-04-12T08:21:57.150Z,971.79
2023-04-12T08:22:57.135Z,971.85
2023-04-12T08:23:57.433Z,971.86
2023-04-12T08:24:57.111Z,971.82
2023-04-12T08:25:57.102Z,971.86
2023-04-12T08:26:57.104Z,971.81
2023-04-12T08:27:57.077Z,971.79
2023-04-12T08:28:57.082Z,971.76
2023-04-12T08:29:57.057Z,971.79
2023-04-12T08:30:57.078Z,971.76
2023-04-12T08:31:57.036Z,971.73
2023-04-12T08:32:57.038Z,971.73
2023-04-12T08:33:57.991Z,971.71
2023-04-12T08:34:57.002Z,971.73
2023-04-12T08:35:57.068Z,971.73
2023-04-12T08:36:56.982Z,971.70
2023-04-12T08:37:56.971Z,971.67
2023-04-12T08:38:57.266Z,971.66
2023-04-12T08:39:56.967Z,971.75
2023-04-12T08:40:56.937Z,971.71
2023-04-12T08:41:56.935Z,971.77
2023-04-12T08:42:56.920Z,971.77
2023-04-12T08:43:57.062Z,971.84
2023-04-12T08:44:56.914Z,971.88
2023-04-12T08:45:56.884Z,971.86
2023-04-12T08:46:57.021Z,971.77
2023-04-12T08:47:56.883Z,971.88
2023-04-12T08:48:56.875Z,971.82
2023-04-12T08:49:56.844Z,971.83
2023-04-12T08:50:56.875Z,971.81
2023-04-12T08:51:56.821Z,971.81
2023-04-12T08:52:56.821Z,971.78
2023-04-12T08:53:57.065Z,971.73
2023-04-12T08:54:57.075Z,971.70
2023-04-12T08:55:56.818Z,971.67
2023-04-12T08:56:56.778Z,971.66
2023-04-12T08:57:56.793Z,971.71
2023-04-12T08:58:56.755Z,971.72
2023-04-12T08:59:56.750Z,971.67
2023-04-12T09:00:57.539Z,971.68
2023-04-12T09:01:56.838Z,971.66
2023-04-12T09:02:56.967Z,971.72
2023-04-12T09:03:57.099Z,971.73
2023-04-12T09:04:56.748Z,971.65
2023-04-12T09:05:56.706Z,971.64
2023-04-12T09:06:56.675Z,971.59
2023-04-12T09:07:56.653Z,971.55
2023-04-12T09:08:56.696Z,971.52
2023-04-12T09:09:56.652Z,971.51
2023-04-12T09:10:56.651Z,971.51
2023-04-12T09:11:56.608Z,971.54
2023-04-12T09:12:56.600Z,971.55
2023-04-12T09:13:57.121Z,971.50
2023-04-12T09:14:56.680Z,971.38
2023-04-12T09:15:56.611Z,971.44
2023-04-12T09:16:56.891Z,971.50
2023-04-12T09:17:56.593Z,971.46
2023-04-12T09:18:56.860Z,971.41
2023-04-12T09:19:56.540Z,971.34
2023-04-12T09:20:56.521Z,971.36
2023-04-12T09:21:56.500Z,971.35
2023-04-12T09:22:56.509Z,971.32
2023-04-12T09:23:56.977Z,971.27
2023-04-12T09:24:56.486Z,971.29
2023-04-12T09:25:56.493Z,971.31
2023-04-12T09:26:56.456Z,971.29
2023-04-12T09:27:56.477Z,971.31
2023-04-12T09:28:56.773Z,971.31
2023-04-12T09:29:57.519Z,971.19
2023-04-12T09:30:56.462Z,971.17
2023-04-12T09:31:56.558Z,971.21
2023-04-12T09:32:56.458Z,971.17
2023-04-12T09:33:56.651Z,971.14
2023-04-12T09:34:56.374Z,971.24
2023-04-12T09:35:56.399Z,971.15
2023-04-12T09:36:56.350Z,971.27
2023-04-12T09:37:56.344Z,971.25
2023-04-12T09:38:56.332Z,971.14
2023-04-12T09:39:56.308Z,971.20
2023-04-12T09:40:56.366Z,971.26
2023-04-12T09:41:56.298Z,971.23
2023-04-12T09:42:56.284Z,971.23
2023-04-12T09:43:56.628Z,971.18
2023-04-12T09:44:56.256Z,971.16
2023-04-12T09:45:57.179Z,971.20
2023-04-12T09:46:56.365Z,971.20
2023-04-12T09:47:56.261Z,971.19
2023-04-12T09:48:56.238Z,971.23
2023-04-12T09:49:56.200Z,971.22
2023-04-12T09:50:56.195Z,971.15
2023-04-12T09:51:58.243Z,971.18
2023-04-12T09:52:56.251Z,971.22
2023-04-12T09:53:56.450Z,971.15
2023-04-12T09:54:56.162Z,971.18
2023-04-12T09:55:56.156Z,971.21
2023-04-12T09:56:57.081Z,971.19
2023-04-12T09:57:56.180Z,971.16
2023-04-12T09:58:56.553Z,971.11
2023-04-12T09:59:56.109Z,971.11
2023-04-12T10:00:56.137Z,971.13
2023-04-12T10:01:56.302Z,971.05
2023-04-12T10:02:56.942Z,971.05
2023-04-12T10:03:56.401Z,970.96
2023-04-12T10:04:56.217Z,970.97
2023-04-12T10:05:56.025Z,971.03
2023-04-12T10:06:56.021Z,970.99
2023-04-12T10:07:56.476Z,970.94
2023-04-12T10:08:56.297Z,971.01
2023-04-12T10:09:55.983Z,970.99
2023-04-12T10:10:55.986Z,970.99
2023-04-12T10:11:55.978Z,971.05
2023-04-12T10:12:55.991Z,971.03
2023-04-12T10:13:56.178Z,970.95
2023-04-12T10:14:55.938Z,971.17
2023-04-12T10:15:55.970Z,971.02
2023-04-12T10:16:55.927Z,970.92
2023-04-12T10:17:55.957Z,970.96
2023-04-12T10:18:56.108Z,970.97
2023-04-12T10:19:55.880Z,970.91
2023-04-12T10:20:56.190Z,970.87
2023-04-12T10:21:55.855Z,970.83
2023-04-12T10:22:55.858Z,970.87
2023-04-12T10:23:55.856Z,970.87
2023-04-12T10:24:55.849Z,970.88
2023-04-12T10:25:55.869Z,970.93
2023-04-12T10:26:55.808Z,970.90
2023-04-12T10:27:55.811Z,970.91
2023-04-12T10:28:56.072Z,970.84
2023-04-12T10:29:55.771Z,970.87
2023-04-12T10:30:55.787Z,970.94
2023-04-12T10:31:55.806Z,970.87
2023-04-12T10:32:55.756Z,970.89
2023-04-12T10:33:55.758Z,970.84
2023-04-12T10:34:55.751Z,970.87
2023-04-12T10:35:56.187Z,970.98
2023-04-12T10:36:55.736Z,970.95
2023-04-12T10:37:55.698Z,970.97
2023-04-12T10:38:56.349Z,970.86
2023-04-12T10:39:55.688Z,970.89
2023-04-12T10:40:55.662Z,970.90
2023-04-12T10:41:55.675Z,970.96
2023-04-12T10:42:55.675Z,970.95
2023-04-12T10:43:55.911Z,970.91
2023-04-12T10:44:56.251Z,970.85
2023-04-12T10:45:55.600Z,970.82
2023-04-12T10:46:55.626Z,970.87
2023-04-12T10:47:55.611Z,970.84
2023-04-12T10:48:55.922Z,970.85
2023-04-12T10:49:55.561Z,970.79
2023-04-12T10:50:55.584Z,970.75
2023-04-12T10:51:55.540Z,970.83
2023-04-12T10:52:55.538Z,970.77
2023-04-12T10:53:55.799Z,970.80
2023-04-12T10:54:55.512Z,970.73
2023-04-12T10:55:55.526Z,970.74
2023-04-12T10:56:55.527Z,970.68
2023-04-12T10:57:55.512Z,970.79
2023-04-12T10:58:55.593Z,970.65
2023-04-12T10:59:55.464Z,970.68
2023-04-12T11:00:55.577Z,970.63
2023-04-12T11:01:55.584Z,970.51
2023-04-12T11:02:55.532Z,970.69
2023-04-12T11:03:55.868Z,970.63
2023-04-12T11:04:55.404Z,970.64
2023-04-12T11:05:56.427Z,970.65
2023-04-12T11:06:56.851Z,970.68
2023-04-12T11:07:56.881Z,970.56
2023-04-12T11:08:55.437Z,970.52
2023-04-12T11:09:56.378Z,970.46
2023-04-12T11:10:55.348Z,970.45
2023-04-12T11:11:56.373Z,970.43
2023-04-12T11:12:55.358Z,970.40
2023-04-12T11:13:55.563Z,970.48
2023-04-12T11:14:56.703Z,970.56
2023-04-12T11:15:56.014Z,970.55
2023-04-12T11:16:55.331Z,970.83
2023-04-12T11:17:56.400Z,970.53
2023-04-12T11:18:55.594Z,970.45
2023-04-12T11:19:55.830Z,970.49
2023-04-12T11:20:55.235Z,970.38
2023-04-12T11:21:55.670Z,970.46
2023-04-12T11:22:55.257Z,970.39
2023-04-12T11:23:55.250Z,970.39
2023-04-12T11:24:55.248Z,970.33
2023-04-12T11:25:55.901Z,970.30
2023-04-12T11:26:55.181Z,970.34
2023-04-12T11:27:55.891Z,970.32
2023-04-12T11:28:55.474Z,970.33
2023-04-12T11:29:56.462Z,970.27
2023-04-12T11:30:55.118Z,970.23
2023-04-12T11:31:55.930Z,970.26
2023-04-12T11:32:55.113Z,970.36
2023-04-12T11:33:55.818Z,970.34
2023-04-12T11:34:55.145Z,970.32
2023-04-12T11:35:55.798Z,970.30
2023-04-12T11:36:55.137Z,970.20
2023-04-12T11:37:55.080Z,970.43
2023-04-12T11:38:55.034Z,970.23
2023-04-12T11:39:56.020Z,970.21
2023-04-12T11:40:55.024Z,970.19
2023-04-12T11:41:56.023Z,970.18
2023-04-12T11:42:56.404Z,970.14
2023-04-12T11:43:55.607Z,970.24
2023-04-12T11:44:58.967Z,970.14
2023-04-12T11:45:56.808Z,970.12
2023-04-12T11:46:54.962Z,970.21
2023-04-12T11:47:56.005Z,970.12
2023-04-12T11:48:55.027Z,970.12
2023-04-12T11:49:54.972Z,970.20
2023-04-12T11:51:07.627Z,970.20
2023-04-12T11:51:55.957Z,970.11
2023-04-12T11:52:55.259Z,970.17
2023-04-12T11:53:55.979Z,970.12
2023-04-12T11:54:54.890Z,970.07
2023-04-12T11:55:55.575Z,970.16
2023-04-12T11:56:54.877Z,969.98
2023-04-12T11:57:54.845Z,969.98
2023-04-12T11:58:54.820Z,970.05
2023-04-12T11:59:54.809Z,970.08
2023-04-12T12:00:54.795Z,969.95
2023-04-12T12:01:54.883Z,970.01
2023-04-12T12:03:06.755Z,970.04
2023-04-12T12:03:56.090Z,970.06
2023-04-12T12:04:55.236Z,969.98
2023-04-12T12:05:55.035Z,970.00
2023-04-12T12:06:55.025Z,969.91
2023-04-12T12:07:54.739Z,970.06
2023-04-12T12:08:55.005Z,969.93
2023-04-12T12:09:54.712Z,970.17
2023-04-12T12:11:07.125Z,969.87
2023-04-12T12:11:55.800Z,969.86
2023-04-12T12:12:54.708Z,969.87
2023-04-12T12:13:54.657Z,969.90
2023-04-12T12:14:54.640Z,969.85
2023-04-12T12:15:55.025Z,969.87
2023-04-12T12:16:54.622Z,969.93
2023-04-12T12:17:54.629Z,970.00
2023-04-12T12:18:55.375Z,970.02
2023-04-12T12:19:54.639Z,969.85
2023-04-12T12:20:55.807Z,969.81
2023-04-12T12:21:54.690Z,969.83
2023-04-12T12:22:55.307Z,969.72
2023-04-12T12:23:54.594Z,969.88
2023-04-12T12:24:55.300Z,969.82
2023-04-12T12:26:00.209Z,969.78
2023-04-12T12:26:56.244Z,969.86
2023-04-12T12:27:54.588Z,969.74